Time;durP1;ratioP1;P1;durP2;ratioP2;P2;SDS_P1;SDS_P2;PMS_P1;PMS_P2;Temp;Humidity;BMP_temperature;BMP_pressure;BME280_temperature;BME280_humidity;BME280_pressure;Samples;Min_cycle;Max_cycle;Signal;HPM_P1;HPM_P2
2023/01/06 10:31:58;;;;;;;;;2.00;2.00;;;;;18.14;51.12;101887.69;5150144;27;45489;-71
2023/01/06 10:34:26;;;;;;;;;3.00;2.00;;;;;18.53;51.66;101898.50;5151204;27;45597;-71
2023/01/06 10:37:16;;;;;;;;;0.33;0.33;;;;;19.16;51.79;101897.72;5153525;27;45447;-70
2023/01/06 10:39:44;;;;;;;;;1.67;1.67;;;;;19.75;52.00;101894.28;5153008;27;45579;-71
2023/01/06 10:45:21;;;;;;;;;2.33;2.00;;;;;20.91;51.52;101897.19;5045229;28;45548;-70
2023/01/06 10:47:46;;;;;;;;;2.00;1.67;;;;;21.36;51.18;101902.63;5034229;28;45416;-70
2023/01/06 10:50:16;;;;;;;;;4.33;2.00;;;;;21.74;50.75;101900.50;5044728;28;45334;-71
2023/01/06 10:52:43;;;;;;;;;2.50;1.50;;;;;22.03;51.16;101897.19;5043350;28;46222;-72
2023/01/06 10:55:24;;;;;;;;;3.67;1.67;;;;;22.38;50.49;101907.69;5048084;28;45423;-71
2023/01/06 10:57:51;;;;;;;;;2.00;2.00;;;;;22.63;50.32;101902.00;5036050;28;45428;-73
2023/01/06 11:00:21;;;;;;;;;1.00;1.00;;;;;22.84;50.16;101899.25;5034895;28;45574;-73
2023/01/06 11:02:50;;;;;;;;;3.00;1.00;;;;;22.99;49.97;101888.91;5037932;28;46344;-74
2023/01/06 11:05:30;;;;;;;;;1.33;1.00;;;;;23.17;49.85;101897.22;5045482;28;45385;-73
2023/01/06 11:08:06;;;;;;;;;1.67;1.67;;;;;23.27;49.61;101881.00;5032390;28;45453;-72
2023/01/06 11:10:38;;;;;;;;;2.00;2.00;;;;;23.41;49.34;101881.63;5027955;28;45954;-75
2023/01/06 11:13:06;;;;;;;;;2.00;2.00;;;;;23.47;49.36;101867.53;5030307;28;45474;-72
2023/01/06 11:15:38;;;;;;;;;1.33;1.33;;;;;23.67;49.42;101881.09;5041531;28;45436;-72
2023/01/06 11:18:16;;;;;;;;;2.00;2.00;;;;;23.77;49.25;101876.53;5031036;28;45507;-72
2023/01/06 11:20:41;;;;;;;;;1.67;1.67;;;;;23.88;48.97;101871.94;5042179;27;45625;-71
2023/01/06 11:23:20;;;;;;;;;1.33;1.33;;;;;23.94;48.76;101880.38;5145552;27;45835;-71
2023/01/06 11:26:10;;;;;;;;;2.33;1.67;;;;;23.99;48.68;101865.53;5142503;27;45447;-71
2023/01/06 11:28:35;;;;;;;;;1.00;1.00;;;;;23.99;48.29;101849.25;5140463;27;45525;-72
2023/01/06 11:31:05;;;;;;;;;1.00;1.00;;;;;24.06;48.34;101855.78;5113656;27;45615;-71
2023/01/06 11:33:33;;;;;;;;;1.33;1.33;;;;;24.08;48.07;101857.34;5141861;27;45484;-75
2023/01/06 11:36:08;;;;;;;;;2.00;1.00;;;;;24.11;48.03;101850.81;5132827;27;45383;-72
2023/01/06 11:38:44;;;;;;;;;1.67;1.67;;;;;24.14;48.20;101846.97;5148029;27;45502;-72
2023/01/06 11:41:11;;;;;;;;;1.00;1.00;;;;;24.20;47.95;101851.81;5146962;27;45420;-71
2023/01/06 11:43:42;;;;;;;;;2.00;2.00;;;;;24.23;47.93;101843.38;5126601;27;45431;-77
2023/01/06 11:46:09;;;;;;;;;1.00;1.00;;;;;24.27;47.77;101849.38;5137755;27;45460;-78
2023/01/06 11:49:07;;;;;;;;;1.33;1.33;;;;;24.38;47.68;101853.75;5137336;27;45549;-74
2023/01/06 11:51:47;;;;;;;;;2.00;2.00;;;;;24.44;47.45;101851.31;5086756;27;45645;-74
2023/01/06 11:54:39;;;;;;;;;1.00;1.00;;;;;24.53;47.21;101846.00;5132016;27;46629;-73
2023/01/06 11:57:35;;;;;;;;;1.33;1.33;;;;;24.58;47.33;101849.13;5116211;27;45561;-72
2023/01/06 12:00:21;;;;;;;;;1.33;1.33;;;;;24.63;47.29;101841.38;5135394;27;45879;-73
2023/01/06 12:03:14;;;;;;;;;2.67;1.00;;;;;24.65;47.30;101835.81;5138441;27;45391;-73
2023/01/06 12:05:39;;;;;;;;;1.00;1.00;;;;;24.72;47.14;101826.03;5138502;27;46187;-74
2023/01/06 12:08:16;;;;;;;;;3.00;1.33;;;;;24.77;46.78;101833.75;5137308;27;45484;-71
2023/01/06 12:10:46;;;;;;;;;2.00;0.00;;;;;24.79;46.92;101826.31;5107833;27;45572;-71
2023/01/06 12:13:15;;;;;;;;;1.00;1.00;;;;;24.81;46.70;101816.16;5122822;27;45675;-71
2023/01/06 12:15:45;;;;;;;;;2.67;2.67;;;;;24.77;46.72;101799.28;5138011;27;45818;-71
2023/01/06 12:18:16;;;;;;;;;3.00;1.67;;;;;24.82;46.48;101801.56;5116312;27;45562;-70
2023/01/06 12:20:45;;;;;;;;;1.00;1.00;;;;;24.83;46.63;101809.59;5137353;27;45519;-70
2023/01/06 12:23:33;;;;;;;;;2.00;1.33;;;;;24.84;46.48;101808.59;5123533;27;45522;-71
2023/01/06 12:26:02;;;;;;;;;3.33;1.67;;;;;24.82;46.06;101786.16;5126231;27;46374;-70
2023/01/06 12:28:34;;;;;;;;;2.67;2.00;;;;;24.82;46.41;101796.16;5116982;27;45373;-71
2023/01/06 12:31:23;;;;;;;;;2.00;2.00;;;;;24.81;45.96;101778.16;5122777;27;45343;-70
2023/01/06 12:34:10;;;;;;;;;1.00;1.00;;;;;24.79;46.04;101783.72;5132957;27;45425;-72
2023/01/06 12:36:45;;;;;;;;;0.00;0.00;;;;;24.79;46.11;101777.44;5122276;27;45549;-75
2023/01/06 12:39:16;;;;;;;;;2.00;2.00;;;;;24.78;45.91;101779.31;5132697;27;45452;-76
2023/01/06 12:41:49;;;;;;;;;2.00;2.00;;;;;24.76;46.13;101775.03;5122382;27;45411;-74
2023/01/06 12:44:20;;;;;;;;;2.00;2.00;;;;;24.81;45.74;101781.69;5126261;27;46675;-75
2023/01/06 12:47:04;;;;;;;;;4.00;2.00;;;;;24.82;45.72;101779.84;5114366;27;46239;-76
2023/01/06 12:49:57;;;;;;;;;2.67;2.00;;;;;24.89;45.86;101774.69;5129519;27;45448;-72
2023/01/06 12:52:31;;;;;;;;;1.00;1.00;;;;;24.89;45.87;101772.81;5133230;27;45505;-72
2023/01/06 12:54:58;;;;;;;;;1.00;1.00;;;;;24.90;45.60;101771.84;5131673;27;45427;-72
2023/01/06 12:57:45;;;;;;;;;2.00;2.00;;;;;24.90;46.01;101765.53;5137389;27;45402;-73
2023/01/06 13:00:47;;;;;;;;;0.67;0.67;;;;;24.93;45.41;101759.81;5136348;27;45887;-74
2023/01/06 13:03:18;;;;;;;;;1.67;1.67;;;;;24.93;45.54;101763.38;5125642;27;45362;-76
2023/01/06 13:05:51;;;;;;;;;2.00;2.00;;;;;24.94;45.51;101761.53;5135151;27;45759;-72
2023/01/06 13:08:24;;;;;;;;;2.00;2.00;;;;;24.94;45.75;101754.25;5136515;27;46073;-72
2023/01/06 13:11:01;;;;;;;;;1.00;1.00;;;;;24.96;45.52;101754.91;5134994;27;45440;-71
2023/01/06 13:13:48;;;;;;;;;2.00;2.00;;;;;24.96;45.49;101754.91;5135713;27;45453;-72
2023/01/06 13:16:24;;;;;;;;;3.00;1.00;;;;;24.94;45.52;101750.66;5132671;27;45470;-72
2023/01/06 13:19:00;;;;;;;;;2.67;1.00;;;;;24.98;45.36;101752.06;5136701;27;46346;-75
2023/01/06 13:21:27;;;;;;;;;1.33;1.33;;;;;24.95;45.42;101755.94;5135877;27;45412;-75
2023/01/06 13:24:08;;;;;;;;;1.00;1.00;;;;;25.00;45.63;101756.31;5137227;27;45373;-75
2023/01/06 13:26:43;;;;;;;;;2.67;2.00;;;;;25.02;45.38;101752.59;5136383;27;45437;-71
2023/01/06 13:29:25;;;;;;;;;2.33;2.00;;;;;25.04;45.41;101761.44;5125611;27;45498;-71
2023/01/06 13:32:06;;;;;;;;;0.00;0.00;;;;;25.00;45.47;101736.44;5123938;27;45477;-70
2023/01/06 13:34:46;;;;;;;;;1.33;1.33;;;;;25.13;45.52;101747.78;5124285;27;45699;-74
2023/01/06 13:37:22;;;;;;;;;3.33;2.00;;;;;25.22;45.43;101743.28;5123548;27;45453;-72
2023/01/06 13:40:00;;;;;;;;;2.00;2.00;;;;;25.32;45.46;101745.94;5118002;27;46334;-71
2023/01/06 13:42:52;;;;;;;;;1.00;1.00;;;;;25.41;45.43;101748.72;5129343;27;45358;-73
2023/01/06 13:45:22;;;;;;;;;1.00;1.00;;;;;25.49;45.47;101744.19;5127864;27;45373;-75
2023/01/06 13:47:49;;;;;;;;;1.00;1.00;;;;;25.57;45.13;101748.00;5136515;27;45728;-72
2023/01/06 13:50:19;;;;;;;;;1.00;1.00;;;;;25.67;44.91;101743.34;5123614;27;46026;-72
2023/01/06 13:52:45;;;;;;;;;1.00;0.67;;;;;25.73;45.16;101742.69;5122841;27;45502;-71
2023/01/06 13:55:23;;;;;;;;;4.33;1.00;;;;;25.78;44.82;101742.22;5124718;27;45473;-71
2023/01/06 13:57:49;;;;;;;;;2.00;2.00;;;;;25.81;44.73;101736.47;5102218;27;45525;-73
2023/01/06 14:00:23;;;;;;;;;1.00;1.00;;;;;25.75;45.23;101721.63;5124433;27;45444;-73
2023/01/06 14:02:49;;;;;;;;;3.00;2.00;;;;;25.84;44.63;101735.28;5086708;27;45377;-73
2023/01/06 14:05:20;;;;;;;;;1.00;1.00;;;;;25.86;44.74;101731.41;5126478;27;45397;-73
2023/01/06 14:07:59;;;;;;;;;1.67;1.00;;;;;25.86;45.03;101730.53;5123850;27;45887;-74
2023/01/06 14:10:28;;;;;;;;;3.00;1.00;;;;;25.87;44.86;101732.25;5119176;27;45616;-74
2023/01/06 14:12:54;;;;;;;;;0.67;0.67;;;;;25.86;44.66;101725.09;5135889;27;45282;-73
2023/01/06 14:15:34;;;;;;;;;1.00;1.00;;;;;25.83;44.57;101728.16;5130622;27;45410;-74
2023/01/06 14:18:01;;;;;;;;;1.67;1.00;;;;;25.89;45.02;101728.38;5120138;27;45528;-75
2023/01/06 14:20:26;;;;;;;;;1.00;1.00;;;;;25.93;44.91;101723.44;5125873;27;45766;-74
2023/01/06 14:23:06;;;;;;;;;1.00;1.00;;;;;25.98;44.71;101721.09;5130213;27;45509;-73
2023/01/06 14:25:41;;;;;;;;;0.67;0.67;;;;;26.02;44.59;101736.09;5124882;27;45442;-73
2023/01/06 14:28:32;;;;;;;;;1.33;1.00;;;;;26.10;44.33;101729.81;5111009;27;45741;-73
2023/01/06 14:31:25;;;;;;;;;1.00;1.00;;;;;26.17;44.21;101733.59;5114284;27;45538;-77
2023/01/06 14:34:00;;;;;;;;;0.33;0.33;;;;;26.23;44.40;101729.38;5118458;27;45545;-74
2023/01/06 14:36:29;;;;;;;;;1.00;0.67;;;;;26.28;44.29;101729.75;5119370;27;46061;-74
2023/01/06 14:38:59;;;;;;;;;2.00;0.33;;;;;26.33;44.13;101714.81;5124224;27;45708;-74
2023/01/06 14:41:58;;;;;;;;;1.00;1.00;;;;;26.34;44.54;101714.66;5120249;27;46130;-75
2023/01/06 14:44:43;;;;;;;;;1.00;1.00;;;;;26.39;44.65;101716.88;5106640;27;45450;-73
2023/01/06 14:47:15;;;;;;;;;1.00;1.00;;;;;26.40;44.44;101718.59;5120560;27;45503;-74
2023/01/06 14:49:50;;;;;;;;;1.67;1.67;;;;;26.38;43.91;101710.59;5115451;27;45606;-72
2023/01/06 14:52:19;;;;;;;;;2.00;0.00;;;;;26.38;44.51;101715.19;5135051;27;46531;-72
2023/01/06 14:54:49;;;;;;;;;5.67;4.00;;;;;26.38;44.28;101717.91;5126915;27;45735;-72
2023/01/06 14:57:48;;;;;;;;;2.00;2.00;;;;;26.32;44.17;101713.94;5125724;27;45449;-72
2023/01/06 15:00:17;;;;;;;;;1.67;1.33;;;;;26.32;43.92;101722.13;5112433;27;45743;-71
2023/01/06 15:02:52;;;;;;;;;2.00;1.00;;;;;26.28;43.93;101720.78;5125186;27;45458;-73
2023/01/06 15:05:40;;;;;;;;;2.00;1.00;;;;;26.27;44.14;101722.63;5132728;27;45410;-72
2023/01/06 15:08:13;;;;;;;;;1.67;1.67;;;;;26.29;43.96;101725.19;5133099;27;45440;-74
2023/01/06 15:10:42;;;;;;;;;2.00;2.00;;;;;26.32;44.31;101722.13;5126442;27;45478;-72
2023/01/06 15:13:21;;;;;;;;;1.00;1.00;;;;;26.37;44.23;101727.09;5118569;27;45369;-78
2023/01/06 15:15:55;;;;;;;;;4.00;1.00;;;;;26.36;44.24;101722.66;5129401;27;45460;-77
2023/01/06 15:18:20;;;;;;;;;3.33;2.00;;;;;26.40;43.70;101724.88;5136248;27;45284;-72
2023/01/06 15:20:46;;;;;;;;;1.00;1.00;;;;;26.45;43.84;101721.69;5136023;27;45906;-77
2023/01/06 15:23:15;;;;;;;;;2.00;2.00;;;;;26.47;43.35;101706.03;5127494;27;47186;-71
2023/01/06 15:25:41;;;;;;;;;2.00;1.33;;;;;26.46;43.20;101701.59;5125990;27;45423;-73
2023/01/06 15:28:26;;;;;;;;;1.00;1.00;;;;;26.47;43.80;101711.47;5125993;27;45465;-72
2023/01/06 15:30:52;;;;;;;;;1.00;1.00;;;;;26.48;43.46;101715.06;5132958;27;45418;-72
2023/01/06 15:33:20;;;;;;;;;2.00;2.00;;;;;26.45;43.87;101708.06;5130591;27;45988;-72
2023/01/06 15:35:47;;;;;;;;;2.00;1.33;;;;;26.44;43.33;101709.06;5138151;27;45342;-76
2023/01/06 15:38:21;;;;;;;;;1.00;1.00;;;;;26.47;43.39;101697.84;5123689;27;45712;-80
2023/01/06 15:40:47;;;;;;;;;1.00;1.00;;;;;26.49;43.33;101703.13;5129356;27;45799;-76
2023/01/06 15:43:15;;;;;;;;;1.00;1.00;;;;;26.50;43.40;101699.41;5135703;27;46039;-77
2023/01/06 15:45:42;;;;;;;;;2.00;1.33;;;;;26.60;43.73;101704.72;5132341;27;45418;-73
2023/01/06 15:48:17;;;;;;;;;2.00;2.00;;;;;26.66;43.33;101707.63;5132381;27;45353;-75
2023/01/06 15:50:42;;;;;;;;;1.67;1.67;;;;;26.70;43.95;101705.41;5128441;27;46964;-75
2023/01/06 15:53:34;;;;;;;;;1.00;1.00;;;;;26.82;43.39;101706.78;5123240;27;45438;-74
2023/01/06 15:56:01;;;;;;;;;3.00;1.33;;;;;26.87;43.84;101705.44;5116838;27;45421;-76
2023/01/06 15:58:29;;;;;;;;;1.00;1.00;;;;;26.90;43.49;101705.09;5134772;27;45536;-75
2023/01/06 16:01:12;;;;;;;;;1.67;1.00;;;;;26.87;42.89;101700.84;5129477;27;45532;-73
2023/01/06 16:03:38;;;;;;;;;1.67;0.00;;;;;26.90;43.55;101705.97;5126285;27;45789;-72
2023/01/06 16:06:12;;;;;;;;;1.33;1.00;;;;;26.87;43.43;101694.53;5129363;27;45375;-71
2023/01/06 16:08:38;;;;;;;;;1.67;1.67;;;;;26.86;43.01;101696.44;5118868;27;45449;-71
2023/01/06 16:11:09;;;;;;;;;6.00;4.67;;;;;26.88;42.90;101698.94;5120532;27;45574;-71
2023/01/06 16:13:35;;;;;;;;;3.00;2.00;;;;;26.88;43.13;101705.25;5124415;27;45603;-71
2023/01/06 16:16:08;;;;;;;;;1.00;1.00;;;;;26.88;42.99;101702.53;5129979;27;45432;-71
2023/01/06 16:18:36;;;;;;;;;1.00;1.00;;;;;26.87;43.02;101709.00;5137822;27;45386;-71
2023/01/06 16:21:34;;;;;;;;;0.67;0.67;;;;;26.86;43.32;101706.47;5124166;27;45552;-72
2023/01/06 16:24:03;;;;;;;;;1.00;1.00;;;;;26.86;42.79;101710.03;5043301;28;46124;-72
2023/01/06 16:26:39;;;;;;;;;2.00;0.33;;;;;26.87;43.12;101697.25;5047017;28;45658;-74
2023/01/06 16:29:25;;;;;;;;;1.00;1.00;;;;;26.91;42.86;101695.91;5050627;28;45603;-74
2023/01/06 16:31:50;;;;;;;;;0.00;0.00;;;;;26.94;43.40;101692.88;5050112;28;45471;-75
2023/01/06 16:34:30;;;;;;;;;1.00;1.00;;;;;27.02;43.42;101697.47;5054873;28;46148;-72
2023/01/06 16:36:59;;;;;;;;;2.67;1.00;;;;;27.07;42.70;101695.97;5053652;28;45405;-72
2023/01/06 16:39:26;;;;;;;;;0.33;0.33;;;;;27.16;42.87;101698.66;5056655;28;45432;-73
2023/01/06 16:41:57;;;;;;;;;1.33;1.00;;;;;27.21;42.95;101694.41;5053417;28;45526;-74
2023/01/06 16:44:22;;;;;;;;;1.00;1.00;;;;;27.18;42.43;101685.75;5055679;28;46060;-73
2023/01/06 16:46:48;;;;;;;;;1.00;1.00;;;;;27.23;42.81;101695.09;5035280;28;45506;-73
2023/01/06 16:49:13;;;;;;;;;2.67;1.33;;;;;27.29;43.06;101693.56;5041607;28;45574;-72
2023/01/06 16:51:39;;;;;;;;;1.33;1.33;;;;;27.22;42.87;101687.94;5034771;28;45381;-72
2023/01/06 16:54:12;;;;;;;;;2.67;2.67;;;;;27.14;42.63;101685.22;5045075;28;46383;-72
2023/01/06 16:56:38;;;;;;;;;3.00;2.00;;;;;27.02;42.11;101689.31;5050507;28;45468;-72
2023/01/06 16:59:15;;;;;;;;;3.00;3.00;;;;;26.88;42.44;101675.31;5061921;27;45457;-72
2023/01/06 17:01:43;;;;;;;;;2.00;2.00;;;;;26.77;42.33;101681.09;5125393;27;45390;-72
2023/01/06 17:04:10;;;;;;;;;3.00;1.33;;;;;26.65;42.08;101672.38;5129025;27;46525;-72
2023/01/06 17:06:37;;;;;;;;;0.00;0.00;;;;;26.51;41.62;101673.88;5135355;27;45437;-72
2023/01/06 17:09:15;;;;;;;;;3.00;1.67;;;;;26.46;41.65;101676.25;5135371;27;45513;-72
2023/01/06 17:11:40;;;;;;;;;2.00;1.00;;;;;26.35;41.97;101680.97;5137695;27;45409;-72
2023/01/06 17:14:15;;;;;;;;;3.00;1.00;;;;;26.24;41.58;101670.38;5129656;27;45662;-72
2023/01/06 17:16:42;;;;;;;;;3.33;2.33;;;;;26.18;41.38;101674.59;5136681;27;45492;-73
2023/01/06 17:19:18;;;;;;;;;1.00;1.00;;;;;26.14;41.80;101684.97;5125276;27;45577;-73
2023/01/06 17:21:44;;;;;;;;;1.00;1.00;;;;;26.08;41.92;101682.03;5108248;27;45399;-74
2023/01/06 17:24:22;;;;;;;;;1.67;1.00;;;;;26.02;41.49;101683.53;5130218;27;46107;-72
2023/01/06 17:26:58;;;;;;;;;1.00;1.00;;;;;25.93;41.79;101674.50;5127247;27;45516;-72
2023/01/06 17:29:28;;;;;;;;;2.00;2.00;;;;;25.87;41.99;101683.31;5131392;27;45544;-72
2023/01/06 17:31:59;;;;;;;;;2.00;2.00;;;;;25.83;41.48;101698.25;5132295;27;45560;-74
2023/01/06 17:34:34;;;;;;;;;1.33;1.33;;;;;25.73;41.41;101691.03;5112940;27;46569;-73
2023/01/06 17:37:09;;;;;;;;;2.67;1.00;;;;;25.70;41.66;101688.63;5117032;27;45604;-73
2023/01/06 17:39:37;;;;;;;;;2.67;1.00;;;;;25.63;41.69;101682.16;5125919;27;45529;-74
2023/01/06 17:42:05;;;;;;;;;2.67;2.00;;;;;25.63;41.74;101685.69;5121920;27;45453;-74
2023/01/06 17:44:38;;;;;;;;;1.33;1.33;;;;;25.61;41.64;101684.16;5125606;27;46652;-71
2023/01/06 17:47:24;;;;;;;;;2.00;1.00;;;;;25.61;41.64;101689.59;5127031;27;45813;-71
2023/01/06 17:49:53;;;;;;;;;1.67;1.67;;;;;25.62;41.39;101691.28;5120136;27;45382;-71
2023/01/06 17:52:30;;;;;;;;;2.00;2.00;;;;;25.61;41.50;101690.47;5126615;27;45406;-71
2023/01/06 17:57:44;;;;;;;;;3.00;1.67;;;;;25.52;41.13;101675.94;5120409;27;45740;-70
2023/01/06 18:00:20;;;;;;;;;1.00;1.00;;;;;25.45;41.15;101663.13;5127824;27;50854;-70
2023/01/06 18:02:51;;;;;;;;;2.67;1.00;;;;;25.50;41.21;101679.84;5128986;27;45866;-70
2023/01/06 18:05:25;;;;;;;;;2.33;2.00;;;;;25.46;41.09;101683.88;5134156;27;46387;-71
2023/01/06 18:08:05;;;;;;;;;1.00;1.00;;;;;25.43;41.56;101685.03;5124702;27;45747;-71
2023/01/06 18:10:33;;;;;;;;;2.00;2.00;;;;;25.37;41.52;101681.09;5119145;27;45361;-71
2023/01/06 18:13:15;;;;;;;;;2.00;2.00;;;;;25.32;41.20;101682.56;5128208;27;45473;-71
2023/01/06 18:15:42;;;;;;;;;1.00;1.00;;;;;25.32;41.51;101693.44;5132639;27;45456;-71
2023/01/06 18:18:24;;;;;;;;;1.00;1.00;;;;;25.32;41.45;101697.00;5134502;27;45540;-71
2023/01/06 18:20:54;;;;;;;;;1.33;0.33;;;;;25.30;41.22;101698.19;5124526;27;45409;-71
2023/01/06 18:23:22;;;;;;;;;2.00;2.00;;;;;25.26;40.93;101697.66;5121467;27;45376;-71
2023/01/06 18:25:55;;;;;;;;;3.00;1.00;;;;;25.24;41.14;101702.38;5128336;27;45477;-71
2023/01/06 18:28:20;;;;;;;;;2.33;2.33;;;;;25.22;41.20;101704.41;5122755;27;45899;-71
2023/01/06 18:30:53;;;;;;;;;2.00;2.00;;;;;25.20;41.20;101690.97;5132653;27;45576;-71
2023/01/06 18:33:18;;;;;;;;;1.00;1.00;;;;;25.12;41.14;101683.63;5129589;27;45468;-71
2023/01/06 18:35:45;;;;;;;;;2.00;2.00;;;;;25.14;41.29;101688.91;5135032;27;53190;-70
2023/01/06 18:38:11;;;;;;;;;1.00;1.00;;;;;25.16;41.32;101700.44;5134311;27;45406;-70
2023/01/06 18:40:37;;;;;;;;;0.67;0.67;;;;;25.13;41.20;101700.75;5122809;27;45480;-70
2023/01/06 18:43:26;;;;;;;;;1.33;1.33;;;;;25.12;40.98;101707.19;5129760;27;45521;-71
2023/01/06 18:45:55;;;;;;;;;1.00;1.00;;;;;25.10;40.76;101711.94;5134794;27;46252;-71
2023/01/06 18:48:30;;;;;;;;;1.33;1.00;;;;;25.09;40.92;101704.81;5121931;27;45856;-70
2023/01/06 18:50:58;;;;;;;;;0.67;0.67;;;;;25.05;40.92;101706.13;5122215;27;45808;-71
2023/01/06 18:53:36;;;;;;;;;2.00;2.00;;;;;24.97;40.90;101699.59;5133215;27;45413;-71
2023/01/06 18:56:08;;;;;;;;;4.00;2.67;;;;;25.01;41.38;101711.00;5122658;27;47290;-71
2023/01/06 18:58:47;;;;;;;;;1.33;1.33;;;;;24.99;41.12;101713.03;5119614;27;46245;-71
2023/01/06 19:01:27;;;;;;;;;1.33;0.67;;;;;24.95;40.72;101712.50;5129716;27;45497;-71
2023/01/06 19:04:18;;;;;;;;;2.00;2.00;;;;;24.96;41.13;101714.19;5119028;27;45480;-71
2023/01/06 19:06:48;;;;;;;;;1.33;1.33;;;;;24.96;40.87;101716.03;5105649;27;46450;-71
2023/01/06 19:09:28;;;;;;;;;4.67;1.67;;;;;24.89;40.97;101699.50;5106095;27;46316;-71
2023/01/06 19:12:01;;;;;;;;;1.67;1.00;;;;;24.89;41.12;101709.53;5128208;27;45513;-72
2023/01/06 19:14:31;;;;;;;;;5.00;2.00;;;;;24.89;40.81;101706.81;5105814;27;45696;-71
2023/01/06 19:16:57;;;;;;;;;2.00;1.00;;;;;24.65;41.16;101660.25;5130164;27;46682;-72
2023/01/06 19:19:38;;;;;;;;;1.67;1.67;;;;;24.90;40.96;101703.97;5117161;27;45848;-71
2023/01/06 19:22:13;;;;;;;;;1.00;1.00;;;;;24.89;40.96;101699.50;5128857;27;45456;-71
2023/01/06 19:24:48;;;;;;;;;2.00;2.00;;;;;24.84;40.66;101693.69;5130725;27;46365;-71
2023/01/06 19:27:39;;;;;;;;;1.00;1.00;;;;;24.84;40.99;101699.13;5126811;27;46991;-71
2023/01/06 19:30:17;;;;;;;;;1.50;1.00;;;;;24.85;41.01;101704.41;5122171;27;46305;-71
2023/01/06 19:32:42;;;;;;;;;1.00;1.00;;;;;24.84;41.21;101708.13;5131143;27;45784;-71
2023/01/06 19:35:25;;;;;;;;;3.00;3.00;;;;;24.84;41.15;101705.41;5133618;27;45773;-72
2023/01/06 19:37:58;;;;;;;;;1.67;1.67;;;;;24.81;41.31;101696.69;5131894;27;46598;-74
2023/01/06 19:40:29;;;;;;;;;2.00;2.00;;;;;24.83;40.72;101703.72;5128950;27;45665;-73
2023/01/06 19:43:24;;;;;;;;;5.00;3.00;;;;;24.87;41.20;101698.81;5121571;27;45426;-73
2023/01/06 19:45:50;;;;;;;;;3.00;3.00;;;;;24.88;40.94;101696.97;5102923;27;47091;-73
2023/01/06 19:48:26;;;;;;;;;3.00;3.00;;;;;24.91;41.00;101694.78;5123184;27;45457;-72
2023/01/06 19:51:07;;;;;;;;;3.00;3.00;;;;;24.94;40.94;101697.22;5114457;27;45898;-72
2023/01/06 19:53:56;;;;;;;;;2.00;2.00;;;;;24.97;40.97;101690.63;5131886;27;45370;-72
2023/01/06 19:56:25;;;;;;;;;2.00;2.00;;;;;24.99;40.90;101689.44;5134978;27;45455;-72
2023/01/06 19:58:53;;;;;;;;;2.00;2.00;;;;;25.00;40.91;101685.72;5113433;27;47345;-73
2023/01/06 20:01:20;;;;;;;;;2.00;2.00;;;;;25.00;41.32;101677.56;5130150;27;45483;-73
2023/01/06 20:03:47;;;;;;;;;1.67;0.67;;;;;25.00;40.88;101683.00;5133862;27;45447;-73
2023/01/06 20:06:15;;;;;;;;;2.00;2.00;;;;;25.03;40.79;101683.69;5126466;27;45343;-73
2023/01/06 20:08:41;;;;;;;;;1.67;1.67;;;;;25.04;40.90;101688.09;5129799;27;45392;-73
2023/01/06 20:11:08;;;;;;;;;1.00;1.00;;;;;25.02;40.81;101681.97;5127739;27;45503;-73
2023/01/06 20:13:33;;;;;;;;;1.67;1.67;;;;;25.03;41.15;101672.81;5129527;27;45426;-74
2023/01/06 20:15:58;;;;;;;;;2.67;2.67;;;;;25.02;40.91;101673.84;5131938;27;45796;-73
2023/01/06 20:18:24;;;;;;;;;2.00;2.00;;;;;25.06;40.84;101678.78;5123040;27;46621;-73
2023/01/06 20:20:49;;;;;;;;;1.33;1.33;;;;;25.03;40.97;101675.53;5123463;27;45498;-73
2023/01/06 20:23:14;;;;;;;;;2.00;2.00;;;;;25.04;40.76;101672.66;5131174;27;46730;-73
2023/01/06 20:25:40;;;;;;;;;1.00;1.00;;;;;25.03;41.19;101676.41;5113845;27;45428;-75
2023/01/06 20:28:06;;;;;;;;;1.00;1.00;;;;;24.96;41.12;101669.88;5124877;27;47255;-74
2023/01/06 20:30:31;;;;;;;;;1.00;1.00;;;;;25.05;40.81;101687.13;5127234;27;45484;-74
2023/01/06 20:32:57;;;;;;;;;0.00;0.00;;;;;25.03;41.08;101687.25;5117194;27;45527;-74
2023/01/06 20:35:22;;;;;;;;;2.33;2.33;;;;;25.01;40.81;101681.13;5117733;27;45654;-74
2023/01/06 20:37:47;;;;;;;;;2.00;2.00;;;;;25.02;40.65;101682.84;5120532;27;46018;-73
2023/01/06 20:40:12;;;;;;;;;3.00;1.67;;;;;25.03;40.73;101686.41;5123521;27;45616;-74
2023/01/06 20:42:38;;;;;;;;;2.33;2.33;;;;;25.00;40.79;101671.28;5125039;27;45759;-74
2023/01/06 20:45:04;;;;;;;;;2.33;2.33;;;;;24.97;40.76;101661.56;5137513;27;45421;-73
2023/01/06 20:47:29;;;;;;;;;2.33;2.00;;;;;24.99;40.79;101658.72;5135392;27;45534;-74
2023/01/06 20:49:55;;;;;;;;;2.00;2.00;;;;;24.98;41.12;101657.00;5136746;27;45843;-74
2023/01/06 20:52:21;;;;;;;;;0.67;0.67;;;;;25.00;40.52;101660.41;5136839;27;45424;-73
2023/01/06 20:54:46;;;;;;;;;3.33;3.33;;;;;24.98;40.79;101657.00;5128945;27;45991;-73
2023/01/06 20:57:11;;;;;;;;;2.33;2.33;;;;;24.99;40.61;101661.44;5118654;27;49165;-73
2023/01/06 20:59:37;;;;;;;;;1.00;1.00;;;;;24.98;40.83;101663.28;5125149;27;46194;-73
2023/01/06 21:02:02;;;;;;;;;2.67;2.67;;;;;24.89;40.61;101647.91;5131550;27;45639;-73
2023/01/06 21:04:28;;;;;;;;;1.67;1.00;;;;;24.95;40.87;101654.59;5136893;27;45879;-74
2023/01/06 21:06:53;;;;;;;;;2.33;2.33;;;;;24.94;40.63;101651.03;5129812;27;45993;-73
2023/01/06 21:09:18;;;;;;;;;2.33;2.00;;;;;24.93;40.66;101643.88;5136723;27;48786;-74
2023/01/06 21:11:43;;;;;;;;;1.00;1.00;;;;;24.94;40.53;101642.91;5136091;27;45499;-74
2023/01/06 21:14:09;;;;;;;;;1.00;1.00;;;;;24.96;40.84;101648.16;5134597;27;45781;-73
2023/01/06 21:16:34;;;;;;;;;2.67;1.00;;;;;24.94;40.82;101642.03;5133303;27;46132;-74
2023/01/06 21:18:59;;;;;;;;;1.00;1.00;;;;;24.93;40.65;101635.75;5133226;27;48449;-73
2023/01/06 21:21:25;;;;;;;;;4.00;2.00;;;;;24.94;40.91;101636.59;5137676;27;46381;-73
2023/01/06 21:23:50;;;;;;;;;2.33;1.00;;;;;24.96;40.76;101642.72;5134765;27;45430;-73
2023/01/06 21:26:15;;;;;;;;;2.00;2.00;;;;;24.93;40.75;101635.75;5137093;27;46655;-73
2023/01/06 21:28:40;;;;;;;;;0.00;0.00;;;;;24.97;40.27;101645.28;5103652;27;45702;-73
2023/01/06 21:31:06;;;;;;;;;1.00;1.00;;;;;24.94;40.61;101639.31;5128547;27;45598;-73
2023/01/06 21:33:31;;;;;;;;;3.00;2.00;;;;;24.95;40.83;101652.75;5123499;27;45520;-73
2023/01/06 21:35:57;;;;;;;;;2.00;2.00;;;;;24.90;40.45;101636.06;5135883;27;45700;-73
2023/01/06 21:38:22;;;;;;;;;2.67;2.00;;;;;24.94;40.29;101653.75;5132898;27;49068;-73
2023/01/06 21:40:48;;;;;;;;;1.00;1.00;;;;;24.93;40.56;101649.31;5135685;27;45431;-72
2023/01/06 21:43:13;;;;;;;;;1.00;1.00;;;;;24.89;40.49;101639.78;5135150;27;50111;-73
2023/01/06 21:45:41;;;;;;;;;1.00;1.00;;;;;24.93;40.50;101645.75;5127039;27;46276;-73
2023/01/06 21:48:07;;;;;;;;;1.00;1.00;;;;;24.92;40.11;101634.03;5122314;27;45340;-73
2023/01/06 21:50:37;;;;;;;;;3.00;1.67;;;;;24.93;40.66;101640.34;5125649;27;45465;-73
2023/01/06 21:53:02;;;;;;;;;2.33;2.33;;;;;24.92;40.93;101644.03;5133041;27;45355;-73
2023/01/06 21:55:28;;;;;;;;;2.00;2.00;;;;;24.83;40.83;101621.41;5134726;27;45989;-74
2023/01/06 21:57:53;;;;;;;;;2.33;2.33;;;;;24.89;40.88;101634.34;5127256;27;45323;-74
2023/01/06 22:00:19;;;;;;;;;1.00;1.00;;;;;24.85;40.71;101622.13;5132150;27;46155;-73
2023/01/06 22:02:46;;;;;;;;;2.33;2.00;;;;;24.82;40.50;101611.53;5135874;27;45544;-73
2023/01/06 22:05:11;;;;;;;;;2.00;2.00;;;;;24.89;40.61;101626.19;5129937;27;46366;-75
2023/01/06 22:07:41;;;;;;;;;2.33;2.33;;;;;24.86;40.77;101623.81;5132033;27;45377;-74
2023/01/06 22:10:09;;;;;;;;;2.67;2.67;;;;;24.87;40.40;101622.78;5125306;27;45453;-74
2023/01/06 22:12:36;;;;;;;;;1.33;1.33;;;;;24.89;40.54;101628.91;5132096;27;45503;-74
2023/01/06 22:15:02;;;;;;;;;1.00;1.00;;;;;24.88;40.48;101618.22;5111153;27;46384;-74
2023/01/06 22:17:28;;;;;;;;;2.00;2.00;;;;;24.86;40.41;101621.94;5107860;27;45496;-73
2023/01/06 22:19:54;;;;;;;;;1.33;1.33;;;;;24.93;40.59;101629.47;5111565;27;46005;-75
2023/01/06 22:22:21;;;;;;;;;1.00;1.00;;;;;24.93;40.73;101624.88;5123299;27;45376;-75
2023/01/06 22:24:48;;;;;;;;;2.00;2.00;;;;;24.94;40.46;101628.47;5134949;27;45656;-75